CheckWX is a tool to help pilots better visualize weather data.  It is not intended as a substitute for an official pre-flight weather briefing.

20:36:11 UTC

GMTT METAR
Ibn Batouta Airport
Tangier, Morocco
Current

36 mins ago

GMTT 182000Z 12006KT 9999 BKN023 BKN030 12/09 Q1017 NOSIG
Observed
Feb-18 @ 20:00 UTC
Wind
  • 120° at 6 KTS
Visibility
10,000+ meters
Flight Rules
MVFR
Cloud Levels
  • Broken at 2,300' AGL
  • Broken at 3,000' AGL
Temperature
12°C / 54°F
Dewpoint
C / 48°F
Humidity
82%
Altimeter
30.03" Hg
Pressure
1016.92 hPa
Previous

1 hour ago

GMTT 181930Z 14005KT 110V190 9999 BKN023 BKN030 12/09 Q1017 NOSIG
Observed
Feb-18 @ 19:30 UTC
Wind
  • 140° at 5 KTS
Visibility
10,000+ meters
Flight Rules
MVFR
Cloud Levels
  • Broken at 2,300' AGL
  • Broken at 3,000' AGL
Temperature
12°C / 54°F
Dewpoint
C / 48°F
Humidity
82%
Altimeter
30.03" Hg
Pressure
1016.92 hPa
Previous

2 hours ago

GMTT 181900Z 14005KT 9999 BKN023 BKN030 13/09 Q1016 NOSIG
Observed
Feb-18 @ 19:00 UTC
Wind
  • 140° at 5 KTS
Visibility
10,000+ meters
Flight Rules
MVFR
Cloud Levels
  • Broken at 2,300' AGL
  • Broken at 3,000' AGL
Temperature
13°C / 55°F
Dewpoint
C / 48°F
Humidity
77%
Altimeter
30" Hg
Pressure
1015.92 hPa